createdAt,value
2022-10-24T00:01:19.716Z,1.65
2022-10-24T00:03:46.801Z,1.70
2022-10-24T00:06:13.728Z,1.80
2022-10-24T00:08:42.962Z,2.20
2022-10-24T00:11:17.943Z,2.05
2022-10-24T00:13:45.085Z,1.80
2022-10-24T00:16:13.091Z,1.63
2022-10-24T00:18:40.156Z,1.80
2022-10-24T00:21:07.556Z,2.17
2022-10-24T00:23:35.113Z,2.22
2022-10-24T00:26:04.267Z,1.70
2022-10-24T00:28:37.338Z,1.90
2022-10-24T00:31:06.805Z,2.10
2022-10-24T00:33:34.561Z,2.10
2022-10-24T00:36:01.641Z,2.15
2022-10-24T00:38:28.544Z,1.70
2022-10-24T00:40:55.487Z,1.80
2022-10-24T00:43:26.244Z,1.70
2022-10-24T00:46:02.396Z,1.55
2022-10-24T00:48:42.123Z,1.58
2022-10-24T00:51:24.821Z,1.80
2022-10-24T00:53:58.797Z,1.70
2022-10-24T00:56:31.391Z,2.05
2022-10-24T00:59:00.087Z,1.75
2022-10-24T01:01:27.169Z,1.70
2022-10-24T01:03:54.222Z,1.60
2022-10-24T01:06:54.284Z,1.67
2022-10-24T01:10:15.979Z,1.55
2022-10-24T01:13:23.934Z,1.50
2022-10-24T01:16:12.586Z,1.70
2022-10-24T01:18:55.020Z,1.30
2022-10-24T01:21:37.898Z,1.75
2022-10-24T01:24:25.826Z,1.50
2022-10-24T01:30:10.804Z,1.08
2022-10-24T01:32:56.065Z,1.63
2022-10-24T01:35:37.046Z,1.45
2022-10-24T01:38:26.740Z,1.25
2022-10-24T01:41:06.380Z,1.60
2022-10-24T01:44:03.385Z,1.95
2022-10-24T01:46:36.429Z,1.38
2022-10-24T01:49:12.241Z,1.25
2022-10-24T01:51:41.108Z,1.05
2022-10-24T01:54:10.970Z,1.52
2022-10-24T01:56:38.582Z,1.52
2022-10-24T01:59:28.554Z,1.10
2022-10-24T02:02:19.548Z,1.63
2022-10-24T02:05:11.965Z,1.27
2022-10-24T02:07:42.360Z,1.50
2022-10-24T02:10:26.451Z,1.45
2022-10-24T02:13:03.954Z,1.50
2022-10-24T02:15:38.846Z,1.33
2022-10-24T02:18:06.254Z,1.77
2022-10-24T02:20:48.668Z,1.40
2022-10-24T02:23:32.201Z,1.55
2022-10-24T02:26:02.542Z,1.42
2022-10-24T02:28:43.137Z,1.55
2022-10-24T02:31:21.868Z,1.90
2022-10-24T02:33:51.559Z,1.92
2022-10-24T02:36:25.699Z,2.10
2022-10-24T02:38:54.105Z,1.95
2022-10-24T02:41:26.144Z,1.90
2022-10-24T02:43:54.570Z,1.25
2022-10-24T02:46:22.497Z,1.15
2022-10-24T02:49:01.005Z,1.30
2022-10-24T02:51:32.986Z,1.20
2022-10-24T02:54:02.055Z,1.50
2022-10-24T02:56:30.421Z,1.13
2022-10-24T02:58:57.474Z,1.52
2022-10-24T03:01:24.734Z,1.30
2022-10-24T03:03:51.878Z,1.50
2022-10-24T03:06:19.426Z,1.40
2022-10-24T03:08:46.414Z,1.67
2022-10-24T03:11:13.355Z,1.60
2022-10-24T03:13:40.277Z,1.40
2022-10-24T03:16:10.286Z,1.85
2022-10-24T03:18:40.155Z,1.67
2022-10-24T03:21:07.165Z,1.80
2022-10-24T03:23:34.249Z,1.42
2022-10-24T03:26:01.195Z,1.33
2022-10-24T03:28:28.085Z,2.00
2022-10-24T03:30:56.336Z,1.77
2022-10-24T03:33:23.552Z,1.50
2022-10-24T03:35:55.104Z,1.50
2022-10-24T03:38:24.148Z,1.35
2022-10-24T03:40:51.609Z,1.70
2022-10-24T03:43:19.806Z,1.50
2022-10-24T03:45:46.695Z,1.85
2022-10-24T03:48:14.218Z,1.52
2022-10-24T03:50:41.228Z,1.60
2022-10-24T03:53:08.463Z,1.92
2022-10-24T03:55:35.903Z,2.03
2022-10-24T03:58:02.823Z,1.30
2022-10-24T04:00:30.142Z,1.70
2022-10-24T04:02:57.202Z,1.95
2022-10-24T04:05:24.699Z,1.80
2022-10-24T04:07:51.646Z,1.95
2022-10-24T04:10:18.668Z,1.58
2022-10-24T04:12:45.558Z,1.95
2022-10-24T04:15:12.692Z,2.05
2022-10-24T04:17:39.966Z,2.08
2022-10-24T04:20:07.626Z,1.83
2022-10-24T04:22:35.054Z,1.75
2022-10-24T04:25:02.019Z,2.00
2022-10-24T04:27:28.927Z,1.58
2022-10-24T04:29:56.365Z,1.98
2022-10-24T04:32:23.253Z,1.65
2022-10-24T04:34:50.230Z,2.20
2022-10-24T04:37:17.178Z,2.00
2022-10-24T04:39:44.071Z,2.13
2022-10-24T04:42:12.143Z,1.50
2022-10-24T04:44:39.044Z,1.60
2022-10-24T04:47:05.917Z,1.83
2022-10-24T04:49:33.011Z,1.90
2022-10-24T04:51:59.956Z,2.10
2022-10-24T04:54:26.888Z,2.92
2022-10-24T04:56:53.795Z,1.80
2022-10-24T04:59:20.696Z,2.10
2022-10-24T05:01:47.861Z,2.03
2022-10-24T05:04:14.846Z,1.80
2022-10-24T05:06:44.253Z,2.30
2022-10-24T05:09:12.374Z,1.92
2022-10-24T05:11:39.283Z,2.38
2022-10-24T05:14:06.286Z,2.08
2022-10-24T05:16:33.519Z,2.38
2022-10-24T05:19:00.472Z,2.08
2022-10-24T05:21:27.386Z,2.20
2022-10-24T05:23:54.289Z,2.28
2022-10-24T05:26:21.333Z,2.40
2022-10-24T05:28:51.658Z,2.28
2022-10-24T05:31:19.824Z,2.40
2022-10-24T05:33:46.869Z,2.08
2022-10-24T05:36:13.931Z,2.13
2022-10-24T05:38:40.890Z,2.75
2022-10-24T05:41:07.807Z,2.35
2022-10-24T05:43:35.036Z,2.55
2022-10-24T05:46:02.009Z,2.10
2022-10-24T05:48:28.971Z,2.05
2022-10-24T05:50:59.645Z,2.20
2022-10-24T05:53:27.393Z,1.98
2022-10-24T05:55:54.330Z,2.10
2022-10-24T05:58:22.378Z,2.03
2022-10-24T06:00:53.785Z,2.35
2022-10-24T06:03:21.995Z,2.50
2022-10-24T06:05:50.109Z,2.40
2022-10-24T06:08:17.372Z,1.90
2022-10-24T06:10:49.916Z,2.20
2022-10-24T06:13:17.767Z,2.23
2022-10-24T06:15:45.712Z,2.30
2022-10-24T06:18:12.998Z,2.28
2022-10-24T06:20:39.978Z,1.92
2022-10-24T06:23:06.932Z,2.00
2022-10-24T06:25:34.009Z,2.37
2022-10-24T06:28:01.056Z,2.03
2022-10-24T06:30:28.446Z,2.20
2022-10-24T06:32:55.401Z,1.53
2022-10-24T06:35:22.369Z,2.20
2022-10-24T06:37:49.797Z,2.05
2022-10-24T06:40:18.818Z,2.00
2022-10-24T06:42:46.264Z,1.63
2022-10-24T06:45:14.144Z,1.85
2022-10-24T06:47:41.070Z,2.10
2022-10-24T06:50:09.132Z,1.50
2022-10-24T06:52:37.158Z,1.73
2022-10-24T06:55:04.943Z,1.77
2022-10-24T06:57:31.892Z,1.67
2022-10-24T06:59:58.833Z,1.77
2022-10-24T07:02:25.912Z,1.93
2022-10-24T07:04:52.937Z,1.30
2022-10-24T07:07:21.631Z,1.60
2022-10-24T07:09:54.994Z,1.70
2022-10-24T07:12:22.994Z,1.55
2022-10-24T07:14:50.153Z,1.50
2022-10-24T07:17:18.631Z,1.60
2022-10-24T07:19:46.112Z,1.67
2022-10-24T07:22:13.127Z,1.40
2022-10-24T07:24:39.998Z,1.98
2022-10-24T07:27:06.889Z,2.10
2022-10-24T07:29:33.807Z,2.08
2022-10-24T07:32:02.076Z,1.80
2022-10-24T07:34:29.118Z,2.10
2022-10-24T07:36:56.081Z,1.95
2022-10-24T07:39:23.093Z,2.40
2022-10-24T07:41:50.031Z,2.13
2022-10-24T07:44:16.961Z,2.03
2022-10-24T07:46:43.913Z,1.90
2022-10-24T07:49:10.915Z,2.00
2022-10-24T07:51:37.809Z,2.00
2022-10-24T07:54:04.836Z,1.83
2022-10-24T07:56:31.931Z,1.90
2022-10-24T07:59:05.806Z,1.88
2022-10-24T08:01:36.687Z,1.70
2022-10-24T08:04:03.603Z,2.17
2022-10-24T08:06:31.955Z,1.90
2022-10-24T08:08:58.897Z,1.80
2022-10-24T08:11:27.963Z,1.90
2022-10-24T08:13:57.360Z,1.85
2022-10-24T08:16:25.290Z,2.10
2022-10-24T08:18:55.536Z,1.90
2022-10-24T08:21:24.354Z,1.95
2022-10-24T08:23:54.424Z,2.10
2022-10-24T08:26:24.850Z,1.80
2022-10-24T08:28:53.342Z,1.80
2022-10-24T08:31:22.844Z,2.13
2022-10-24T08:33:53.503Z,2.40
2022-10-24T08:36:26.166Z,2.60
2022-10-24T08:38:53.745Z,2.50
2022-10-24T08:41:39.382Z,2.10
2022-10-24T08:44:40.443Z,2.30
2022-10-24T08:47:29.460Z,2.30
2022-10-24T08:50:23.435Z,2.67
2022-10-24T08:53:07.012Z,3.20
2022-10-24T08:55:49.653Z,3.10
2022-10-24T08:58:29.269Z,2.72
2022-10-24T09:01:00.656Z,2.92
2022-10-24T09:03:56.983Z,2.97
2022-10-24T09:06:29.293Z,2.30
2022-10-24T09:09:02.204Z,2.60
2022-10-24T09:11:54.870Z,2.63
2022-10-24T09:14:30.409Z,3.28
2022-10-24T09:17:11.226Z,2.03
2022-10-24T09:19:39.300Z,2.10
2022-10-24T09:22:08.002Z,2.80
2022-10-24T09:24:43.079Z,2.55
2022-10-24T09:27:17.447Z,2.15
2022-10-24T09:29:44.589Z,2.22
2022-10-24T09:32:20.394Z,2.60
2022-10-24T09:34:48.890Z,2.25
2022-10-24T09:37:42.793Z,1.80
2022-10-24T09:40:24.853Z,2.40
2022-10-24T09:43:16.219Z,2.30
2022-10-24T09:45:48.881Z,2.97
2022-10-24T09:48:35.790Z,2.30
2022-10-24T09:51:05.393Z,2.28
2022-10-24T09:53:36.249Z,2.33
2022-10-24T09:56:14.728Z,1.77
2022-10-24T09:58:42.621Z,2.28
2022-10-24T10:01:21.094Z,1.60
2022-10-24T10:04:08.634Z,1.52
2022-10-24T10:06:45.971Z,1.90
2022-10-24T10:09:17.011Z,1.70
2022-10-24T10:11:49.310Z,1.67
2022-10-24T10:14:29.916Z,1.88
2022-10-24T10:17:05.859Z,1.80
2022-10-24T10:19:39.567Z,1.67
2022-10-24T10:22:23.277Z,2.25
2022-10-24T10:24:50.322Z,2.10
2022-10-24T10:27:30.349Z,1.90
2022-10-24T10:30:12.540Z,2.35
2022-10-24T10:33:23.174Z,2.00
2022-10-24T10:36:21.558Z,1.92
2022-10-24T10:39:19.585Z,1.75
2022-10-24T10:41:58.729Z,1.95
2022-10-24T10:44:46.650Z,1.90
2022-10-24T10:47:53.897Z,1.73
2022-10-24T10:50:48.719Z,1.50
2022-10-24T10:53:42.677Z,1.70
2022-10-24T10:56:25.408Z,1.98
2022-10-24T10:59:18.619Z,2.05
2022-10-24T11:02:01.147Z,1.20
2022-10-24T11:05:14.433Z,1.70
2022-10-24T11:08:08.597Z,1.60
2022-10-24T11:10:49.645Z,1.60
2022-10-24T11:13:33.698Z,1.45
2022-10-24T11:16:07.767Z,1.58
2022-10-24T11:18:39.057Z,1.73
2022-10-24T11:21:12.369Z,1.63
2022-10-24T11:24:03.623Z,1.50
2022-10-24T11:26:43.508Z,1.33
2022-10-24T11:29:41.053Z,1.73
2022-10-24T11:32:26.530Z,1.48
2022-10-24T11:35:02.412Z,1.50
2022-10-24T11:37:42.620Z,1.10
2022-10-24T11:40:21.055Z,1.00
2022-10-24T11:43:27.279Z,1.50
2022-10-24T11:46:13.440Z,1.20
2022-10-24T11:51:49.159Z,1.58
2022-10-24T11:54:30.004Z,1.40
2022-10-24T11:57:04.259Z,1.17
2022-10-24T11:59:31.223Z,1.20
2022-10-24T12:02:07.425Z,1.27
2022-10-24T12:04:48.999Z,1.77
2022-10-24T12:07:36.788Z,1.40
2022-10-24T12:11:00.907Z,1.45
2022-10-24T12:14:13.344Z,1.40
2022-10-24T12:17:01.382Z,1.55
2022-10-24T12:19:28.733Z,1.75
2022-10-24T12:21:59.396Z,1.50
2022-10-24T12:24:39.045Z,1.52
2022-10-24T12:27:39.980Z,1.50
2022-10-24T12:30:09.989Z,1.55
2022-10-24T12:32:41.369Z,1.08
2022-10-24T12:35:30.554Z,1.75
2022-10-24T12:37:58.805Z,1.70
2022-10-24T12:40:49.256Z,1.25
2022-10-24T12:43:29.214Z,1.58
2022-10-24T12:46:00.236Z,1.35
2022-10-24T12:48:37.584Z,1.23
2022-10-24T12:51:33.455Z,1.33
2022-10-24T12:54:04.702Z,1.20
2022-10-24T12:56:33.995Z,1.30
2022-10-24T12:59:25.246Z,1.25
2022-10-24T13:02:20.970Z,1.00
2022-10-24T13:04:56.372Z,0.93
2022-10-24T13:07:54.188Z,1.00
2022-10-24T13:10:45.947Z,1.02
2022-10-24T13:14:03.437Z,0.90
2022-10-24T13:17:04.103Z,1.20
2022-10-24T13:19:31.365Z,1.20
2022-10-24T13:22:00.701Z,1.00
2022-10-24T13:24:40.518Z,1.50
2022-10-24T13:27:11.895Z,1.10
2022-10-24T13:29:40.074Z,1.30
2022-10-24T13:32:06.916Z,1.20
2022-10-24T13:34:54.850Z,1.33
2022-10-24T13:37:24.712Z,1.70
2022-10-24T13:40:21.088Z,1.40
2022-10-24T13:42:55.673Z,1.88
2022-10-24T13:45:51.908Z,1.30
2022-10-24T13:48:26.417Z,1.85
2022-10-24T13:51:13.879Z,1.48
2022-10-24T13:54:00.771Z,1.50
2022-10-24T13:56:31.291Z,1.60
2022-10-24T13:58:58.192Z,1.38
2022-10-24T14:01:36.361Z,1.35
2022-10-24T14:04:03.636Z,1.45
2022-10-24T14:06:33.725Z,1.55
2022-10-24T14:09:10.290Z,1.40
2022-10-24T14:11:47.213Z,1.23
2022-10-24T14:14:31.684Z,1.50
2022-10-24T14:17:29.299Z,1.25
2022-10-24T14:19:58.948Z,1.20
2022-10-24T14:22:39.724Z,1.88
2022-10-24T14:25:27.493Z,1.17
2022-10-24T14:27:58.457Z,1.70
2022-10-24T14:30:33.537Z,2.08
2022-10-24T14:33:13.892Z,1.98
2022-10-24T14:35:42.064Z,1.67
2022-10-24T14:38:15.834Z,1.88
2022-10-24T14:40:44.881Z,2.05
2022-10-24T14:46:13.544Z,1.98
2022-10-24T14:48:46.864Z,1.90
2022-10-24T14:51:26.337Z,1.88
2022-10-24T14:53:53.414Z,1.70
2022-10-24T14:56:34.551Z,1.95
2022-10-24T14:59:05.989Z,1.55
2022-10-24T15:01:33.226Z,1.60
2022-10-24T15:04:03.772Z,1.65
2022-10-24T15:06:43.913Z,2.53
2022-10-24T15:09:10.701Z,1.95
2022-10-24T15:11:47.579Z,2.25
2022-10-24T15:14:36.231Z,1.85
2022-10-24T15:17:17.725Z,2.15
2022-10-24T15:19:48.520Z,2.42
2022-10-24T15:22:36.853Z,2.38
2022-10-24T15:25:16.626Z,2.10
2022-10-24T15:27:45.577Z,2.47
2022-10-24T15:30:21.339Z,2.35
2022-10-24T15:32:50.716Z,1.63
2022-10-24T15:35:18.428Z,1.92
2022-10-24T15:38:20.986Z,1.83
2022-10-24T15:40:49.146Z,0.70
2022-10-24T15:43:19.602Z,1.30
2022-10-24T15:45:47.000Z,1.00
2022-10-24T15:48:13.934Z,1.20
2022-10-24T15:50:46.449Z,1.33
2022-10-24T15:53:21.597Z,1.00
2022-10-24T15:55:48.759Z,1.30
2022-10-24T15:58:17.986Z,1.08
2022-10-24T16:00:45.593Z,2.25
2022-10-24T16:03:20.343Z,2.20
2022-10-24T16:05:52.870Z,2.27
2022-10-24T16:08:20.509Z,2.17
2022-10-24T16:10:53.345Z,1.55
2022-10-24T16:13:22.681Z,1.60
2022-10-24T16:15:50.234Z,1.70
2022-10-24T16:18:17.790Z,1.55
2022-10-24T16:20:44.836Z,1.80
2022-10-24T16:23:16.509Z,1.70
2022-10-24T16:25:43.657Z,2.22
2022-10-24T16:28:10.761Z,2.47
2022-10-24T16:30:41.421Z,1.52
2022-10-24T16:33:08.660Z,1.52
2022-10-24T16:35:37.923Z,0.93
2022-10-24T16:38:08.144Z,1.20
2022-10-24T16:40:45.554Z,1.43
2022-10-24T16:43:17.353Z,1.00
2022-10-24T16:45:47.200Z,0.80
2022-10-24T16:48:14.361Z,0.77
2022-10-24T16:50:46.413Z,0.70
2022-10-24T16:53:15.465Z,0.90
2022-10-24T16:55:52.183Z,1.03
2022-10-24T16:58:20.873Z,1.07
2022-10-24T17:00:49.720Z,0.80
2022-10-24T17:03:16.764Z,0.70
2022-10-24T17:08:13.632Z,0.70
2022-10-24T17:10:40.586Z,1.70
2022-10-24T17:13:07.648Z,1.97
2022-10-24T17:15:34.785Z,1.07
2022-10-24T17:18:01.909Z,0.83
2022-10-24T17:20:28.840Z,1.30
2022-10-24T17:22:56.437Z,1.23
2022-10-24T17:25:28.486Z,1.67
2022-10-24T17:27:55.773Z,2.03
2022-10-24T17:30:27.282Z,1.73
2022-10-24T17:32:54.566Z,1.53
2022-10-24T17:35:24.143Z,1.17
2022-10-24T17:38:27.076Z,1.10
2022-10-24T17:40:56.457Z,1.70
2022-10-24T17:43:27.071Z,1.30
2022-10-24T17:45:57.499Z,1.53
2022-10-24T17:48:24.901Z,1.80
2022-10-24T17:50:52.683Z,2.03
2022-10-24T17:53:19.790Z,2.27
2022-10-24T17:55:47.922Z,2.10
2022-10-24T17:58:16.419Z,1.70
2022-10-24T18:00:44.679Z,2.03
2022-10-24T18:03:11.999Z,1.93
2022-10-24T18:05:39.098Z,1.90
2022-10-24T18:08:08.927Z,2.63
2022-10-24T18:10:40.842Z,2.50
2022-10-24T18:13:09.274Z,2.27
2022-10-24T18:15:36.787Z,2.10
2022-10-24T18:18:04.505Z,2.40
2022-10-24T18:20:32.246Z,2.87
2022-10-24T18:22:59.407Z,3.47
2022-10-24T18:25:27.119Z,3.37
2022-10-24T18:27:55.420Z,3.07
2022-10-24T18:30:22.603Z,2.57
2022-10-24T18:32:49.886Z,2.97
2022-10-24T18:35:17.173Z,2.90
2022-10-24T18:37:44.214Z,2.85
2022-10-24T18:40:12.197Z,3.20
2022-10-24T18:42:56.741Z,3.15
2022-10-24T18:45:26.853Z,4.20
2022-10-24T18:47:54.727Z,3.10
2022-10-24T18:50:24.508Z,3.53
2022-10-24T18:53:06.603Z,3.23
2022-10-24T18:55:35.589Z,3.40
2022-10-24T18:58:03.582Z,3.10
2022-10-24T19:00:36.525Z,3.78
2022-10-24T19:03:15.559Z,3.38
2022-10-24T19:05:51.847Z,3.45
2022-10-24T19:08:25.344Z,5.18
2022-10-24T19:10:55.793Z,5.68
2022-10-24T19:13:25.192Z,5.05
2022-10-24T19:16:05.823Z,4.07
2022-10-24T19:18:36.322Z,3.73
2022-10-24T19:21:06.858Z,4.23
2022-10-24T19:23:34.603Z,3.70
2022-10-24T19:26:01.934Z,3.93
2022-10-24T19:28:28.829Z,3.40
2022-10-24T19:30:55.755Z,3.22
2022-10-24T19:33:27.706Z,2.70
2022-10-24T19:35:54.614Z,2.93
2022-10-24T19:38:21.682Z,2.63
2022-10-24T19:40:52.083Z,2.70
2022-10-24T19:43:23.909Z,3.00
2022-10-24T19:46:07.636Z,2.20
2022-10-24T19:48:41.203Z,2.47
2022-10-24T19:51:12.225Z,2.67
2022-10-24T19:53:42.205Z,2.60
2022-10-24T19:56:22.595Z,2.80
2022-10-24T19:58:52.249Z,2.70
2022-10-24T20:01:25.742Z,2.97
2022-10-24T20:03:55.165Z,2.95
2022-10-24T20:06:23.774Z,2.65
2022-10-24T20:08:50.987Z,2.67
2022-10-24T20:11:20.647Z,2.67
2022-10-24T20:13:50.291Z,2.70
2022-10-24T20:16:17.580Z,2.53
2022-10-24T20:18:44.749Z,2.10
2022-10-24T20:21:15.093Z,2.50
2022-10-24T20:23:42.097Z,3.17
2022-10-24T20:26:13.063Z,2.17
2022-10-24T20:28:43.914Z,2.05
2022-10-24T20:31:27.857Z,2.30
2022-10-24T20:34:04.932Z,2.00
2022-10-24T20:36:37.560Z,2.45
2022-10-24T20:39:06.678Z,2.27
2022-10-24T20:41:34.581Z,2.10
2022-10-24T20:44:02.390Z,2.22
2022-10-24T20:46:29.370Z,2.30
2022-10-24T20:48:56.947Z,2.58
2022-10-24T20:51:23.930Z,2.20
2022-10-24T20:53:50.894Z,2.27
2022-10-24T20:56:22.457Z,1.97
2022-10-24T20:58:54.923Z,2.28
2022-10-24T21:01:25.532Z,2.50
2022-10-24T21:03:53.441Z,2.17
2022-10-24T21:06:27.477Z,2.00
2022-10-24T21:08:58.039Z,2.73
2022-10-24T21:11:28.019Z,2.20
2022-10-24T21:14:04.869Z,1.95
2022-10-24T21:16:32.442Z,2.10
2022-10-24T21:19:00.194Z,1.90
2022-10-24T21:21:27.802Z,2.00
2022-10-24T21:24:02.295Z,2.00
2022-10-24T21:26:38.537Z,1.87
2022-10-24T21:29:27.994Z,2.13
2022-10-24T21:31:53.084Z,2.07
2022-10-24T21:34:20.045Z,2.00
2022-10-24T21:36:47.465Z,2.03
2022-10-24T21:39:16.086Z,1.73
2022-10-24T21:41:43.941Z,1.93
2022-10-24T21:44:11.051Z,1.90
2022-10-24T21:46:37.966Z,1.90
2022-10-24T21:49:04.874Z,1.90
2022-10-24T21:51:35.501Z,2.00
2022-10-24T21:54:06.796Z,2.10
2022-10-24T21:56:39.278Z,1.97
2022-10-24T21:59:11.851Z,1.90
2022-10-24T22:01:39.808Z,2.20
2022-10-24T22:04:07.932Z,2.40
2022-10-24T22:06:36.040Z,2.37
2022-10-24T22:09:06.166Z,2.17
2022-10-24T22:11:35.085Z,2.40
2022-10-24T22:14:03.412Z,2.37
2022-10-24T22:16:31.798Z,2.40
2022-10-24T22:19:04.701Z,2.53
2022-10-24T22:21:37.713Z,2.10
2022-10-24T22:24:20.455Z,2.40
2022-10-24T22:26:48.485Z,2.20
2022-10-24T22:29:19.492Z,1.83
2022-10-24T22:31:48.873Z,2.00
2022-10-24T22:34:26.574Z,2.27
2022-10-24T22:37:12.843Z,2.03
2022-10-24T22:39:40.693Z,1.90
2022-10-24T22:42:13.493Z,2.37
2022-10-24T22:44:44.018Z,2.00
2022-10-24T22:47:47.881Z,1.97
2022-10-24T22:50:32.705Z,2.00
2022-10-24T22:52:59.987Z,2.00
2022-10-24T22:55:35.628Z,2.83
2022-10-24T22:58:02.950Z,2.60
2022-10-24T23:00:30.796Z,1.97
2022-10-24T23:03:35.684Z,2.30
2022-10-24T23:06:33.674Z,2.20
2022-10-24T23:09:00.614Z,2.17
2022-10-24T23:11:27.855Z,2.13
2022-10-24T23:13:55.195Z,2.27
2022-10-24T23:16:38.500Z,1.80
2022-10-24T23:19:32.415Z,2.63
2022-10-24T23:22:21.124Z,1.93
2022-10-24T23:24:49.326Z,2.10
2022-10-24T23:27:43.161Z,1.80
2022-10-24T23:30:22.718Z,2.00
2022-10-24T23:32:51.058Z,1.90
2022-10-24T23:35:20.145Z,2.00
2022-10-24T23:37:52.650Z,2.47
2022-10-24T23:40:35.867Z,1.97
2022-10-24T23:43:06.850Z,1.80
2022-10-24T23:45:50.811Z,2.00
2022-10-24T23:49:28.233Z,1.90
2022-10-24T23:52:25.566Z,2.07
2022-10-24T23:54:52.821Z,2.20
2022-10-24T23:57:20.919Z,1.95
2022-10-24T23:59:47.940Z,1.80
